Time;durP1;ratioP1;P1;durP2;ratioP2;P2;SDS_P1;SDS_P2;PMS_P1;PMS_P2;Temp;Humidity;BMP_temperature;BMP_pressure;BME280_temperature;BME280_humidity;BME280_pressure;Samples;Min_cycle;Max_cycle;Signal;HPM_P1;HPM_P2
2020/12/31 00:00:11;;;;;;;3.95;1.55;;;2.30;99.90;;;;;;4147328;28;20042;-84
2020/12/31 00:02:13;;;;;;;3.30;2.80;;;2.30;99.90;;;;;;4171645;28;20056;-83
2020/12/31 00:04:14;;;;;;;1.20;1.10;;;2.30;99.90;;;;;;4171489;28;20045;-87
2020/12/31 00:06:16;;;;;;;2.10;1.30;;;2.30;99.80;;;;;;4152890;28;20064;-83
2020/12/31 00:08:17;;;;;;;1.77;1.58;;;2.30;99.60;;;;;;4127837;28;20050;-83
2020/12/31 00:10:18;;;;;;;0.47;0.40;;;2.30;99.60;;;;;;4171204;28;20051;-83
2020/12/31 00:12:20;;;;;;;3.22;1.17;;;2.30;99.90;;;;;;4148112;28;20058;-85
2020/12/31 00:14:21;;;;;;;2.83;1.75;;;2.20;99.90;;;;;;4145501;28;20060;-83
2020/12/31 00:16:22;;;;;;;1.77;1.40;;;2.20;99.90;;;;;;4152411;28;20045;-83
2020/12/31 00:18:24;;;;;;;2.70;1.33;;;2.10;99.90;;;;;;4131443;28;20055;-83
2020/12/31 00:20:25;;;;;;;1.13;0.65;;;2.10;99.90;;;;;;4131289;28;20072;-83
2020/12/31 00:22:26;;;;;;;2.17;1.05;;;2.10;99.90;;;;;;4147089;28;20054;-83
2020/12/31 00:24:27;;;;;;;1.52;1.13;;;2.00;99.90;;;;;;4146820;28;20084;-83
2020/12/31 00:26:29;;;;;;;4.95;2.65;;;2.10;99.90;;;;;;4160609;28;20072;-84
2020/12/31 00:28:30;;;;;;;2.50;1.52;;;2.00;99.90;;;;;;4157946;28;20129;-84
2020/12/31 00:30:31;;;;;;;1.10;1.00;;;2.00;99.90;;;;;;4146926;28;20064;-84
2020/12/31 00:32:32;;;;;;;8.15;1.70;;;2.00;99.90;;;;;;4129603;28;20046;-84
2020/12/31 00:34:34;;;;;;;1.63;0.98;;;2.00;99.90;;;;;;4155202;28;20045;-83
2020/12/31 00:36:35;;;;;;;1.58;1.48;;;2.00;99.90;;;;;;4161405;28;20049;-84
2020/12/31 00:38:36;;;;;;;9.93;2.40;;;2.00;99.90;;;;;;4163861;28;20053;-84
2020/12/31 00:40:38;;;;;;;2.30;1.45;;;2.00;99.90;;;;;;4156293;28;20363;-83
2020/12/31 00:42:39;;;;;;;0.98;0.55;;;2.00;99.90;;;;;;4147685;28;20510;-84
2020/12/31 00:44:40;;;;;;;7.13;1.23;;;2.00;99.90;;;;;;4147459;28;20410;-84
2020/12/31 00:46:42;;;;;;;1.17;0.88;;;2.00;99.90;;;;;;4141968;28;20062;-86
2020/12/31 00:48:44;;;;;;;1.27;1.17;;;2.00;99.90;;;;;;4130024;28;20427;-84
2020/12/31 00:50:45;;;;;;;5.55;2.63;;;2.00;99.90;;;;;;4146874;28;20183;-83
2020/12/31 00:52:46;;;;;;;2.08;1.48;;;1.90;99.90;;;;;;4131509;28;20137;-84
2020/12/31 00:54:48;;;;;;;5.00;2.10;;;1.90;99.90;;;;;;4146891;28;20056;-84
2020/12/31 00:56:49;;;;;;;2.83;1.80;;;1.90;99.90;;;;;;4143116;28;20438;-85
2020/12/31 00:58:51;;;;;;;1.73;1.40;;;2.00;99.90;;;;;;4144192;28;20124;-87
2020/12/31 01:00:53;;;;;;;1.85;0.85;;;2.00;99.90;;;;;;4133952;28;20140;-84
2020/12/31 01:02:54;;;;;;;5.28;1.35;;;2.00;99.90;;;;;;4147437;28;20562;-84
2020/12/31 01:04:55;;;;;;;0.80;0.80;;;2.00;99.90;;;;;;4163146;28;20045;-84
2020/12/31 01:06:56;;;;;;;1.48;1.05;;;1.90;99.90;;;;;;4161039;28;20097;-85
2020/12/31 01:08:58;;;;;;;4.57;1.67;;;1.90;99.90;;;;;;4168211;28;20077;-84
2020/12/31 01:10:59;;;;;;;0.77;0.60;;;1.90;99.90;;;;;;4163309;28;20443;-83
2020/12/31 01:13:00;;;;;;;1.98;1.80;;;1.90;99.90;;;;;;4145889;28;20057;-84
2020/12/31 01:15:05;;;;;;;5.57;0.93;;;1.90;99.90;;;;;;4131009;28;20057;-84
2020/12/31 01:17:07;;;;;;;2.55;1.83;;;1.90;99.90;;;;;;4130646;28;20082;-85
2020/12/31 01:19:08;;;;;;;1.20;1.05;;;1.90;99.90;;;;;;4176462;28;20417;-85
2020/12/31 01:21:10;;;;;;;2.30;0.90;;;1.80;99.90;;;;;;4135963;28;20085;-84
2020/12/31 01:23:11;;;;;;;2.83;1.02;;;1.80;99.90;;;;;;4145761;28;20085;-84
2020/12/31 01:25:13;;;;;;;1.73;1.45;;;1.80;99.90;;;;;;4143388;28;20050;-84
2020/12/31 01:27:14;;;;;;;3.67;1.33;;;1.80;99.90;;;;;;4146580;28;20045;-86
2020/12/31 01:29:15;;;;;;;2.72;2.13;;;1.80;99.90;;;;;;4171649;28;20120;-83
2020/12/31 01:31:16;;;;;;;1.02;1.02;;;1.90;99.90;;;;;;4178953;28;20041;-85
2020/12/31 01:33:18;;;;;;;9.82;1.35;;;1.90;99.90;;;;;;4177623;28;20484;-85
2020/12/31 01:35:19;;;;;;;3.45;2.25;;;1.90;99.90;;;;;;4185760;28;20061;-86
2020/12/31 01:37:21;;;;;;;2.50;1.42;;;1.90;99.90;;;;;;4168266;28;20053;-86
2020/12/31 01:39:22;;;;;;;2.95;0.73;;;1.90;99.90;;;;;;4190043;28;20056;-84
2020/12/31 01:41:24;;;;;;;2.80;1.40;;;1.90;99.90;;;;;;4170760;28;20422;-84
2020/12/31 01:43:25;;;;;;;1.00;1.00;;;1.90;99.90;;;;;;4166006;28;20073;-84
2020/12/31 01:45:26;;;;;;;1.10;1.00;;;2.00;99.90;;;;;;4179582;28;20049;-84
2020/12/31 01:47:27;;;;;;;0.77;0.63;;;1.90;99.90;;;;;;4160463;28;20045;-84
2020/12/31 01:49:31;;;;;;;0.25;0.25;;;1.90;99.90;;;;;;4162658;28;20114;-83
2020/12/31 01:51:33;;;;;;;3.08;2.85;;;2.00;99.90;;;;;;4163500;28;20054;-84
2020/12/31 01:53:35;;;;;;;1.20;1.10;;;2.00;99.90;;;;;;4161096;28;20054;-83
2020/12/31 01:55:36;;;;;;;1.52;1.35;;;2.00;99.90;;;;;;4162604;28;20053;-84
2020/12/31 01:57:37;;;;;;;1.02;0.63;;;2.00;99.90;;;;;;4177789;28;20131;-85
2020/12/31 01:59:38;;;;;;;1.42;1.15;;;2.00;99.90;;;;;;4175172;28;20052;-84
2020/12/31 02:01:40;;;;;;;3.00;1.20;;;2.00;99.90;;;;;;4178705;28;20440;-86
2020/12/31 02:03:41;;;;;;;2.80;1.85;;;2.00;99.90;;;;;;4160441;28;20582;-84
2020/12/31 02:05:44;;;;;;;1.67;1.10;;;2.00;99.90;;;;;;4145292;28;20053;-85
2020/12/31 02:07:46;;;;;;;3.33;1.58;;;2.00;99.90;;;;;;4166112;28;20044;-84
2020/12/31 02:09:48;;;;;;;0.85;0.85;;;2.10;99.90;;;;;;4176573;28;20075;-84
2020/12/31 02:11:49;;;;;;;1.33;1.23;;;2.10;99.90;;;;;;4158451;28;20052;-84
2020/12/31 02:13:52;;;;;;;0.82;0.82;;;2.10;99.90;;;;;;4179247;28;20425;-84
2020/12/31 02:15:53;;;;;;;2.28;0.70;;;2.10;99.90;;;;;;4162202;28;20589;-83
2020/12/31 02:17:55;;;;;;;0.98;0.68;;;2.10;99.90;;;;;;4134522;28;20058;-84
2020/12/31 02:19:56;;;;;;;2.30;1.50;;;2.00;99.90;;;;;;4181902;28;20140;-83
2020/12/31 02:21:58;;;;;;;2.15;1.23;;;2.10;99.90;;;;;;4122958;28;20433;-83
2020/12/31 02:24:00;;;;;;;1.48;1.05;;;2.10;99.90;;;;;;4148073;28;20510;-84
2020/12/31 02:26:01;;;;;;;0.70;0.55;;;2.10;99.90;;;;;;4163661;28;20111;-84
2020/12/31 02:28:02;;;;;;;0.88;0.75;;;2.10;99.90;;;;;;4179313;28;20411;-84
2020/12/31 02:30:04;;;;;;;1.40;0.63;;;2.10;99.90;;;;;;4168212;28;20051;-84
2020/12/31 02:32:05;;;;;;;1.30;0.82;;;2.10;99.90;;;;;;4160372;28;20045;-85
2020/12/31 02:34:07;;;;;;;0.82;0.73;;;2.10;99.90;;;;;;4147559;28;20521;-84
2020/12/31 02:36:08;;;;;;;3.25;1.10;;;2.10;99.90;;;;;;4133361;28;20137;-84
2020/12/31 02:38:09;;;;;;;1.10;1.10;;;2.10;99.90;;;;;;4132265;28;20577;-85
2020/12/31 02:40:11;;;;;;;0.68;0.68;;;2.20;99.90;;;;;;4138839;28;20136;-84
2020/12/31 02:42:12;;;;;;;1.23;0.68;;;2.10;99.90;;;;;;4150725;28;20588;-84
2020/12/31 02:44:13;;;;;;;1.17;1.15;;;2.20;99.90;;;;;;4149018;28;20052;-84
2020/12/31 02:46:15;;;;;;;1.95;0.70;;;2.10;99.90;;;;;;4123362;28;20081;-84
2020/12/31 02:48:16;;;;;;;1.92;1.20;;;2.20;99.90;;;;;;4149587;28;20056;-86
2020/12/31 02:50:18;;;;;;;0.50;0.50;;;2.10;99.90;;;;;;4148717;28;20541;-85
2020/12/31 02:52:19;;;;;;;0.85;0.55;;;2.10;99.90;;;;;;4139815;28;20060;-87
2020/12/31 02:54:20;;;;;;;0.55;0.55;;;2.10;99.90;;;;;;4149013;28;20061;-85
2020/12/31 02:56:23;;;;;;;2.70;1.50;;;2.10;99.90;;;;;;4158934;28;20144;-84
2020/12/31 02:58:24;;;;;;;1.67;1.38;;;2.10;99.90;;;;;;4132072;28;20137;-84
2020/12/31 03:00:25;;;;;;;2.58;1.52;;;2.10;99.90;;;;;;4149411;28;20075;-85
2020/12/31 03:02:26;;;;;;;3.50;1.70;;;2.10;99.90;;;;;;4146598;28;20056;-84
2020/12/31 03:04:28;;;;;;;0.85;0.50;;;2.10;99.90;;;;;;4161010;28;20132;-85
2020/12/31 03:06:29;;;;;;;1.85;1.73;;;2.10;99.90;;;;;;4132383;28;20050;-88
2020/12/31 03:08:31;;;;;;;0.40;0.40;;;2.10;99.90;;;;;;4162133;28;20053;-85
2020/12/31 03:10:32;;;;;;;0.85;0.77;;;2.10;99.90;;;;;;4131879;28;20074;-84
2020/12/31 03:12:35;;;;;;;3.83;0.88;;;2.10;99.90;;;;;;4163717;28;20132;-85
2020/12/31 03:14:36;;;;;;;0.98;0.68;;;2.20;99.90;;;;;;4131014;28;20077;-84
2020/12/31 03:16:37;;;;;;;0.77;0.75;;;2.20;99.90;;;;;;4152985;28;20053;-84
2020/12/31 03:18:39;;;;;;;0.70;0.60;;;2.20;99.80;;;;;;4177077;28;20041;-84
2020/12/31 03:20:43;;;;;;;1.95;1.17;;;2.20;99.80;;;;;;4146284;28;20081;-84
2020/12/31 03:22:45;;;;;;;2.28;1.60;;;2.20;99.70;;;;;;4122267;28;20416;-90
2020/12/31 03:24:46;;;;;;;1.13;1.02;;;2.20;99.90;;;;;;4164873;28;20554;-84
2020/12/31 03:26:47;;;;;;;0.75;0.75;;;2.20;99.90;;;;;;4148532;28;20046;-84
2020/12/31 03:28:48;;;;;;;0.17;0.17;;;2.20;99.90;;;;;;4148258;28;20042;-85
2020/12/31 03:30:50;;;;;;;1.35;0.93;;;2.20;99.80;;;;;;4131960;28;20495;-84
2020/12/31 03:32:51;;;;;;;0.90;0.90;;;2.20;99.70;;;;;;4148131;28;20141;-86
2020/12/31 03:34:52;;;;;;;3.28;1.42;;;2.20;99.80;;;;;;4182939;28;20041;-84
2020/12/31 03:36:53;;;;;;;5.35;1.85;;;2.20;99.60;;;;;;4180473;28;20063;-85
2020/12/31 03:38:57;;;;;;;0.88;0.88;;;2.20;99.70;;;;;;4148672;28;20136;-84
2020/12/31 03:40:58;;;;;;;2.50;1.23;;;2.20;99.40;;;;;;4152369;28;20046;-84
2020/12/31 03:42:59;;;;;;;0.77;0.77;;;2.20;99.30;;;;;;4164043;28;20136;-85
2020/12/31 03:45:01;;;;;;;0.52;0.52;;;2.30;99.30;;;;;;4132040;28;20137;-85
2020/12/31 03:47:02;;;;;;;1.23;1.08;;;2.30;99.10;;;;;;4164362;28;20041;-86
2020/12/31 03:49:03;;;;;;;3.60;1.25;;;2.30;99.20;;;;;;4137614;28;20052;-85
2020/12/31 03:51:05;;;;;;;1.67;1.05;;;2.30;99.10;;;;;;4132283;28;20049;-84
2020/12/31 03:53:06;;;;;;;1.05;0.95;;;2.30;99.10;;;;;;4165804;28;20046;-84
2020/12/31 03:55:07;;;;;;;0.75;0.50;;;2.30;99.20;;;;;;4154458;28;20053;-86
2020/12/31 03:57:08;;;;;;;2.80;1.08;;;2.40;99.20;;;;;;4147943;28;20136;-84
2020/12/31 03:59:10;;;;;;;1.50;1.40;;;2.40;98.90;;;;;;4146216;28;20058;-85
2020/12/31 04:01:11;;;;;;;1.25;1.02;;;2.40;98.90;;;;;;4163174;28;20069;-87
2020/12/31 04:03:12;;;;;;;0.77;0.32;;;2.40;98.90;;;;;;4150520;28;20430;-84
2020/12/31 04:05:13;;;;;;;0.98;0.80;;;2.40;98.90;;;;;;4159064;28;20045;-85
2020/12/31 04:07:15;;;;;;;0.30;0.30;;;2.40;99.00;;;;;;4160982;28;20441;-85
2020/12/31 04:09:16;;;;;;;0.50;0.50;;;2.40;98.90;;;;;;4184016;28;20208;-84
2020/12/31 04:11:17;;;;;;;0.52;0.52;;;2.40;99.10;;;;;;4180200;28;20037;-84
2020/12/31 04:13:19;;;;;;;0.73;0.73;;;2.40;99.10;;;;;;4152046;28;20141;-89
2020/12/31 04:15:20;;;;;;;0.82;0.82;;;2.40;99.50;;;;;;4147573;28;20046;-85
2020/12/31 04:17:21;;;;;;;3.10;1.67;;;2.40;99.50;;;;;;4186059;28;20140;-84
2020/12/31 04:19:23;;;;;;;0.55;0.52;;;2.40;99.40;;;;;;4169299;28;20179;-84
2020/12/31 04:21:24;;;;;;;0.43;0.43;;;2.40;99.50;;;;;;4171567;28;20067;-85
2020/12/31 04:23:25;;;;;;;1.05;0.95;;;2.40;99.20;;;;;;4163253;28;20045;-83
2020/12/31 04:25:26;;;;;;;0.68;0.68;;;2.40;99.70;;;;;;4153540;28;20057;-83
2020/12/31 04:27:28;;;;;;;0.82;0.43;;;2.40;99.50;;;;;;4147686;28;20049;-84
2020/12/31 04:29:29;;;;;;;1.40;1.05;;;2.40;99.50;;;;;;4147734;28;20100;-84
2020/12/31 04:31:30;;;;;;;1.38;0.73;;;2.40;99.50;;;;;;4187711;28;20068;-84
2020/12/31 04:33:32;;;;;;;0.60;0.60;;;2.40;99.50;;;;;;4162570;28;20128;-84
2020/12/31 04:35:33;;;;;;;1.58;0.93;;;2.50;99.40;;;;;;4184845;28;20051;-84
2020/12/31 04:37:35;;;;;;;0.60;0.60;;;2.40;99.50;;;;;;4171893;28;20211;-84
2020/12/31 04:39:37;;;;;;;0.35;0.35;;;2.40;99.20;;;;;;4172567;28;20535;-83
2020/12/31 04:41:38;;;;;;;1.60;0.50;;;2.40;98.30;;;;;;4193319;28;20052;-85
2020/12/31 04:43:39;;;;;;;0.47;0.47;;;2.40;98.40;;;;;;4175941;28;20060;-84
2020/12/31 04:45:42;;;;;;;0.50;0.50;;;2.50;98.50;;;;;;4148893;28;20507;-84
2020/12/31 04:47:44;;;;;;;0.73;0.73;;;2.50;98.60;;;;;;4181128;28;20067;-84
2020/12/31 04:49:49;;;;;;;0.20;0.20;;;2.60;98.50;;;;;;4197011;28;20052;-87
2020/12/31 04:51:50;;;;;;;0.40;0.40;;;2.60;98.50;;;;;;4193230;28;20079;-84
2020/12/31 04:53:53;;;;;;;2.08;0.77;;;2.60;98.00;;;;;;4171112;28;20064;-84
2020/12/31 04:55:54;;;;;;;1.48;0.68;;;2.60;97.90;;;;;;4198033;28;20048;-84
2020/12/31 04:57:56;;;;;;;0.50;0.50;;;2.60;98.00;;;;;;4197961;28;20112;-91
2020/12/31 04:59:58;;;;;;;0.50;0.50;;;2.60;98.10;;;;;;4183207;28;20455;-84
2020/12/31 05:02:05;;;;;;;1.02;0.82;;;2.70;98.30;;;;;;4146791;28;20076;-84
2020/12/31 05:04:06;;;;;;;0.63;0.53;;;2.60;98.20;;;;;;4178619;28;20059;-84
2020/12/31 05:06:07;;;;;;;0.20;0.20;;;2.60;98.20;;;;;;4188585;28;20049;-84
2020/12/31 05:08:09;;;;;;;0.65;0.60;;;2.60;97.90;;;;;;4163940;28;20059;-85
2020/12/31 05:10:10;;;;;;;0.25;0.25;;;2.60;97.40;;;;;;4164540;28;20426;-85
2020/12/31 05:12:12;;;;;;;0.68;0.68;;;2.70;97.40;;;;;;4184855;28;20048;-85
2020/12/31 05:14:14;;;;;;;0.40;0.40;;;2.70;97.60;;;;;;4166238;28;20055;-84
2020/12/31 05:16:33;;;;;;;0.50;0.50;;;2.70;97.40;;;;;;4152231;28;20403;-84
2020/12/31 05:18:35;;;;;;;0.52;0.52;;;2.70;97.10;;;;;;4144366;28;20506;-86
2020/12/31 05:20:37;;;;;;;0.20;0.20;;;2.70;96.70;;;;;;4171633;28;20049;-85
2020/12/31 05:22:38;;;;;;;0.32;0.30;;;2.70;96.40;;;;;;4150279;28;20503;-85
2020/12/31 05:24:41;;;;;;;0.30;0.30;;;2.70;96.60;;;;;;4155593;28;20088;-85
2020/12/31 05:26:42;;;;;;;0.63;0.60;;;2.80;96.50;;;;;;4162920;28;20057;-86
2020/12/31 05:28:43;;;;;;;0.65;0.65;;;2.80;96.50;;;;;;4172031;28;20077;-85
2020/12/31 05:30:45;;;;;;;2.05;0.40;;;2.80;96.10;;;;;;4177818;28;20057;-85
2020/12/31 05:32:46;;;;;;;1.08;1.08;;;2.80;96.30;;;;;;4190164;28;20136;-85
2020/12/31 05:34:47;;;;;;;0.57;0.50;;;2.90;96.10;;;;;;4185689;28;20090;-85
2020/12/31 05:36:49;;;;;;;0.45;0.45;;;2.80;96.10;;;;;;4157288;28;20445;-86
2020/12/31 05:39:02;;;;;;;0.32;0.32;;;2.80;96.50;;;;;;4189585;28;20467;-84
2020/12/31 05:41:03;;;;;;;0.82;0.82;;;2.80;96.30;;;;;;4162649;28;20131;-86
2020/12/31 05:43:04;;;;;;;0.30;0.30;;;2.80;96.50;;;;;;4146448;28;20061;-85
2020/12/31 05:45:10;;;;;;;0.68;0.68;;;2.90;96.30;;;;;;4149870;28;20136;-85
2020/12/31 05:47:17;;;;;;;1.38;1.15;;;2.90;96.30;;;;;;4185757;28;20049;-86
2020/12/31 05:49:18;;;;;;;0.45;0.40;;;2.90;95.90;;;;;;4166050;28;20140;-86
2020/12/31 05:51:33;;;;;;;2.00;0.38;;;2.90;95.60;;;;;;4181354;28;20056;-86
2020/12/31 05:53:34;;;;;;;0.47;0.47;;;2.90;95.50;;;;;;4171498;28;20052;-85
2020/12/31 05:55:36;;;;;;;0.20;0.20;;;2.90;95.90;;;;;;4149902;28;20129;-85
2020/12/31 05:57:41;;;;;;;0.35;0.35;;;2.90;95.70;;;;;;4160915;28;20521;-85
2020/12/31 05:59:42;;;;;;;0.45;0.45;;;2.90;95.70;;;;;;4186758;28;20402;-85
2020/12/31 06:01:56;;;;;;;0.20;0.20;;;2.90;95.60;;;;;;4170036;28;20124;-86
2020/12/31 06:03:58;;;;;;;0.70;0.70;;;2.90;95.80;;;;;;4164476;28;20552;-87
2020/12/31 06:06:08;;;;;;;0.28;0.28;;;2.90;95.70;;;;;;4173205;28;20532;-86
2020/12/31 06:08:09;;;;;;;0.38;0.38;;;2.90;95.80;;;;;;4182046;28;20059;-84
2020/12/31 06:10:12;;;;;;;0.60;0.60;;;2.90;96.00;;;;;;4133258;28;20149;-85
2020/12/31 06:12:22;;;;;;;0.75;0.75;;;2.90;95.70;;;;;;4163157;28;20049;-86
2020/12/31 06:14:30;;;;;;;0.57;0.47;;;2.90;95.20;;;;;;4144101;28;20073;-85
2020/12/31 06:16:35;;;;;;;0.45;0.35;;;2.90;95.50;;;;;;4176126;28;20630;-85
2020/12/31 06:18:37;;;;;;;0.15;0.15;;;2.90;95.70;;;;;;4192423;28;20068;-84
2020/12/31 06:20:38;;;;;;;0.20;0.20;;;2.80;95.50;;;;;;4175842;28;20464;-85
2020/12/31 06:23:07;;;;;;;0.65;0.65;;;2.80;95.70;;;;;;4170105;28;20131;-84
2020/12/31 06:25:08;;;;;;;0.52;0.52;;;2.90;95.60;;;;;;4161162;28;20052;-84
2020/12/31 06:27:11;;;;;;;0.65;0.65;;;2.90;95.40;;;;;;4162950;28;20216;-85
2020/12/31 06:29:12;;;;;;;0.28;0.28;;;2.80;94.60;;;;;;4182564;28;20072;-85
2020/12/31 06:31:13;;;;;;;0.47;0.47;;;2.90;95.30;;;;;;4156437;28;20144;-85
2020/12/31 06:33:31;;;;;;;0.85;0.40;;;2.90;95.30;;;;;;4167939;28;20124;-84
2020/12/31 06:35:33;;;;;;;0.30;0.30;;;2.90;95.30;;;;;;4150337;28;20057;-84
2020/12/31 06:37:36;;;;;;;0.32;0.32;;;2.90;95.10;;;;;;4154638;28;20496;-85
2020/12/31 06:39:38;;;;;;;0.30;0.30;;;2.90;95.40;;;;;;4174635;28;20180;-85
2020/12/31 06:41:41;;;;;;;0.65;0.30;;;2.90;95.20;;;;;;4169568;28;20458;-86
2020/12/31 06:43:43;;;;;;;1.23;1.13;;;2.90;95.20;;;;;;4152914;28;20128;-85
2020/12/31 06:45:45;;;;;;;0.50;0.50;;;2.90;95.00;;;;;;4166968;28;20502;-85
2020/12/31 06:47:46;;;;;;;0.73;0.20;;;2.90;95.10;;;;;;4164730;28;20037;-84
2020/12/31 06:49:52;;;;;;;0.93;0.50;;;2.90;95.10;;;;;;4182851;28;20056;-86
2020/12/31 06:51:53;;;;;;;0.60;0.60;;;3.00;95.10;;;;;;4175439;28;20425;-84
2020/12/31 06:53:55;;;;;;;0.45;0.45;;;3.00;95.00;;;;;;4156067;28;20060;-84
2020/12/31 06:55:58;;;;;;;0.40;0.40;;;2.90;94.90;;;;;;4185625;28;20059;-85
2020/12/31 06:58:02;;;;;;;0.50;0.22;;;3.00;94.40;;;;;;4148390;28;20058;-85
2020/12/31 07:00:04;;;;;;;0.38;0.38;;;3.00;94.40;;;;;;4166388;28;20067;-84
2020/12/31 07:02:11;;;;;;;1.08;0.93;;;2.90;94.90;;;;;;4144868;28;20141;-84
2020/12/31 07:04:28;;;;;;;0.20;0.20;;;3.00;94.80;;;;;;4212154;28;20131;-84
2020/12/31 07:06:30;;;;;;;0.30;0.30;;;2.90;94.70;;;;;;4164337;28;20057;-85
2020/12/31 07:08:37;;;;;;;0.20;0.20;;;3.00;95.00;;;;;;4146187;28;20141;-85
2020/12/31 07:10:45;;;;;;;0.85;0.50;;;3.00;94.60;;;;;;4172155;28;20065;-84
2020/12/31 07:12:46;;;;;;;0.32;0.32;;;2.90;94.60;;;;;;4148951;28;20054;-85
2020/12/31 07:14:51;;;;;;;3.17;0.60;;;3.00;94.80;;;;;;4171128;28;20057;-85
2020/12/31 07:17:03;;;;;;;0.32;0.30;;;3.00;94.40;;;;;;4163342;28;20120;-84
2020/12/31 07:19:05;;;;;;;1.30;0.43;;;3.00;94.60;;;;;;4148794;28;20056;-85
2020/12/31 07:21:06;;;;;;;1.13;0.22;;;3.00;94.60;;;;;;4143237;28;20062;-85
2020/12/31 07:23:07;;;;;;;0.30;0.30;;;3.10;94.60;;;;;;4169593;28;20042;-86
2020/12/31 07:25:12;;;;;;;1.30;0.45;;;3.10;94.10;;;;;;4154109;28;20053;-86
2020/12/31 07:27:26;;;;;;;0.75;0.60;;;3.10;94.00;;;;;;4131479;28;20066;-86
2020/12/31 07:29:33;;;;;;;0.30;0.30;;;3.10;94.00;;;;;;4164485;28;20489;-84
2020/12/31 07:31:40;;;;;;;1.25;0.68;;;3.10;94.00;;;;;;4147867;28;20054;-85
2020/12/31 07:33:41;;;;;;;0.20;0.20;;;3.20;93.80;;;;;;4132411;28;20050;-86
2020/12/31 07:35:43;;;;;;;0.30;0.30;;;3.20;94.10;;;;;;4149179;28;20469;-86
2020/12/31 07:37:44;;;;;;;0.20;0.20;;;3.20;94.10;;;;;;4147151;28;20073;-87
2020/12/31 07:39:46;;;;;;;0.85;0.60;;;3.20;94.20;;;;;;4147676;28;20479;-87
2020/12/31 07:41:47;;;;;;;0.45;0.25;;;3.20;94.10;;;;;;4132851;28;20057;-86
2020/12/31 07:43:48;;;;;;;0.85;0.85;;;3.20;93.80;;;;;;4169500;28;20044;-86
2020/12/31 07:45:51;;;;;;;0.40;0.40;;;3.20;94.00;;;;;;4161466;28;20053;-87
2020/12/31 07:47:53;;;;;;;0.22;0.22;;;3.10;93.70;;;;;;4133142;28;20054;-86
2020/12/31 07:49:54;;;;;;;0.22;0.22;;;3.10;94.20;;;;;;4156725;28;20045;-87
2020/12/31 07:52:00;;;;;;;0.52;0.52;;;3.10;94.30;;;;;;4164466;28;20128;-88
2020/12/31 07:54:02;;;;;;;1.17;0.60;;;3.10;94.10;;;;;;4148682;28;20064;-87
2020/12/31 07:56:04;;;;;;;1.25;1.15;;;3.20;94.20;;;;;;4161562;28;20128;-86
2020/12/31 07:58:08;;;;;;;0.20;0.20;;;3.20;94.20;;;;;;4148658;28;20049;-87
2020/12/31 08:00:17;;;;;;;0.80;0.75;;;3.20;94.00;;;;;;4164630;28;20128;-87
2020/12/31 08:02:18;;;;;;;0.20;0.20;;;3.20;94.00;;;;;;4161646;28;20130;-87
2020/12/31 08:04:25;;;;;;;0.77;0.70;;;3.20;94.20;;;;;;4146965;28;20471;-88
2020/12/31 08:06:27;;;;;;;0.57;0.57;;;3.20;93.90;;;;;;4134057;28;20061;-88
2020/12/31 08:08:28;;;;;;;0.60;0.60;;;3.30;94.00;;;;;;4176424;28;20099;-87
2020/12/31 08:10:33;;;;;;;0.38;0.38;;;3.20;93.90;;;;;;4158757;28;20056;-88
2020/12/31 08:12:39;;;;;;;0.30;0.30;;;3.20;93.90;;;;;;4148095;28;20050;-88
2020/12/31 08:14:41;;;;;;;0.17;0.17;;;3.20;93.70;;;;;;4131879;28;20049;-88
2020/12/31 08:16:43;;;;;;;1.17;1.08;;;3.20;94.00;;;;;;4149495;28;20546;-88
2020/12/31 08:18:44;;;;;;;1.48;0.88;;;3.20;94.00;;;;;;4163568;28;20583;-88
2020/12/31 08:20:46;;;;;;;0.30;0.30;;;3.20;93.80;;;;;;4131509;28;20073;-88
2020/12/31 08:22:52;;;;;;;1.00;0.75;;;3.20;93.90;;;;;;4127267;28;20057;-87
2020/12/31 08:24:59;;;;;;;0.30;0.30;;;3.20;93.90;;;;;;4175486;28;20061;-88
2020/12/31 08:27:01;;;;;;;0.45;0.45;;;3.20;94.30;;;;;;4145860;28;20518;-88
2020/12/31 08:29:02;;;;;;;0.73;0.50;;;3.30;93.90;;;;;;4131663;28;20046;-83
2020/12/31 08:31:10;;;;;;;0.32;0.32;;;3.30;93.80;;;;;;4139075;28;20096;-87
2020/12/31 08:33:12;;;;;;;0.98;0.65;;;3.30;93.80;;;;;;4148360;28;20050;-86
2020/12/31 08:35:13;;;;;;;0.30;0.30;;;3.30;93.80;;;;;;4155926;28;20045;-87
2020/12/31 08:37:15;;;;;;;0.30;0.30;;;3.30;93.80;;;;;;4158724;28;20045;-86
2020/12/31 08:39:16;;;;;;;3.08;0.60;;;3.30;93.80;;;;;;4148384;28;20540;-85
2020/12/31 08:41:19;;;;;;;0.30;0.30;;;3.40;93.50;;;;;;4140201;28;20114;-86
2020/12/31 08:43:25;;;;;;;0.40;0.32;;;3.40;93.70;;;;;;4167047;28;20107;-87
2020/12/31 08:45:32;;;;;;;0.65;0.65;;;3.30;93.40;;;;;;4188919;28;20113;-86
2020/12/31 08:47:35;;;;;;;0.20;0.20;;;3.40;93.30;;;;;;4148827;28;20077;-89
2020/12/31 08:49:36;;;;;;;1.33;0.50;;;3.40;93.40;;;;;;4145329;28;20136;-88
2020/12/31 08:51:38;;;;;;;2.47;0.47;;;3.40;93.60;;;;;;4163722;28;20048;-89
2020/12/31 08:53:49;;;;;;;0.75;0.57;;;3.40;93.40;;;;;;4148244;28;20133;-88
2020/12/31 08:55:51;;;;;;;0.50;0.50;;;3.40;93.40;;;;;;4158189;28;20052;-88
2020/12/31 08:58:10;;;;;;;0.25;0.25;;;3.50;93.40;;;;;;4131186;28;20048;-87
2020/12/31 09:00:11;;;;;;;1.35;0.35;;;3.50;93.40;;;;;;4131682;28;20145;-88
2020/12/31 09:02:13;;;;;;;0.30;0.30;;;3.40;93.50;;;;;;4126227;28;20046;-88
2020/12/31 09:04:18;;;;;;;0.35;0.30;;;3.50;93.50;;;;;;4130154;28;20509;-88
2020/12/31 09:06:24;;;;;;;0.75;0.63;;;3.50;93.70;;;;;;4163638;28;20140;-88
2020/12/31 09:08:26;;;;;;;0.57;0.50;;;3.60;93.70;;;;;;4131491;28;20052;-88
2020/12/31 09:10:27;;;;;;;1.80;0.40;;;3.60;93.50;;;;;;4131949;28;20133;-88
2020/12/31 09:12:31;;;;;;;0.13;0.13;;;3.60;93.60;;;;;;4141262;28;20054;-87
2020/12/31 09:14:37;;;;;;;0.40;0.40;;;3.60;93.70;;;;;;4148657;28;20053;-86
2020/12/31 09:16:39;;;;;;;0.30;0.30;;;3.70;93.50;;;;;;4149843;28;20053;-87
2020/12/31 09:18:40;;;;;;;0.55;0.55;;;3.70;93.40;;;;;;4152066;28;20109;-89
2020/12/31 09:20:42;;;;;;;0.22;0.22;;;3.80;93.40;;;;;;4161877;28;20049;-85
2020/12/31 09:22:43;;;;;;;0.30;0.30;;;3.90;93.40;;;;;;4146707;28;20105;-84
2020/12/31 09:24:44;;;;;;;0.43;0.40;;;3.90;93.00;;;;;;4146140;28;20133;-88
2020/12/31 09:26:52;;;;;;;0.40;0.40;;;3.90;93.00;;;;;;4150551;28;20137;-88
2020/12/31 09:28:53;;;;;;;0.40;0.40;;;3.90;92.90;;;;;;4163418;28;20068;-88
2020/12/31 09:30:55;;;;;;;0.30;0.30;;;3.90;92.80;;;;;;4146689;28;20060;-84
2020/12/31 09:32:56;;;;;;;0.38;0.20;;;3.90;92.70;;;;;;4147194;28;20050;-89
2020/12/31 09:34:57;;;;;;;0.30;0.30;;;3.90;92.70;;;;;;4146835;28;20068;-88
2020/12/31 09:37:00;;;;;;;0.20;0.20;;;4.00;92.80;;;;;;4149774;28;20045;-88
2020/12/31 09:39:01;;;;;;;0.15;0.15;;;4.00;92.80;;;;;;4148261;28;20593;-88
2020/12/31 09:41:02;;;;;;;0.30;0.30;;;4.00;92.80;;;;;;4152681;28;20046;-89
2020/12/31 09:43:04;;;;;;;0.17;0.17;;;4.00;93.00;;;;;;4169286;28;20041;-88
2020/12/31 09:45:05;;;;;;;0.40;0.17;;;4.00;92.60;;;;;;4170904;28;20049;-87
2020/12/31 09:47:07;;;;;;;0.20;0.20;;;4.00;92.90;;;;;;4142374;28;20572;-88
2020/12/31 09:49:08;;;;;;;0.20;0.20;;;4.00;92.70;;;;;;4152257;28;20043;-88
2020/12/31 09:51:09;;;;;;;0.32;0.32;;;4.10;92.50;;;;;;4130997;28;20085;-89
2020/12/31 09:53:10;;;;;;;0.20;0.20;;;4.10;92.50;;;;;;4128833;28;20045;-88
2020/12/31 09:55:17;;;;;;;0.20;0.20;;;4.20;92.20;;;;;;4162002;28;20049;-89
2020/12/31 09:57:19;;;;;;;0.30;0.30;;;4.20;92.20;;;;;;4146540;28;20077;-88
2020/12/31 09:59:21;;;;;;;0.35;0.25;;;4.30;91.90;;;;;;4145506;28;20056;-87
2020/12/31 10:01:22;;;;;;;0.65;0.43;;;4.30;92.00;;;;;;4160919;28;20049;-88
2020/12/31 10:03:25;;;;;;;0.43;0.40;;;4.40;92.00;;;;;;4147125;28;20421;-89
2020/12/31 10:05:26;;;;;;;0.30;0.30;;;4.40;91.40;;;;;;4127046;28;20495;-85
2020/12/31 10:07:27;;;;;;;0.40;0.40;;;4.50;91.10;;;;;;4138995;28;20432;-86
2020/12/31 10:09:29;;;;;;;0.20;0.20;;;4.40;90.90;;;;;;4115726;28;20050;-85
2020/12/31 10:11:30;;;;;;;0.22;0.20;;;4.50;90.90;;;;;;4145799;28;20053;-86
2020/12/31 10:13:31;;;;;;;0.20;0.20;;;4.50;91.10;;;;;;4123142;28;20537;-87
2020/12/31 10:15:33;;;;;;;0.40;0.30;;;4.50;90.70;;;;;;4131428;28;20128;-86
2020/12/31 10:17:35;;;;;;;0.10;0.10;;;4.60;90.80;;;;;;4144568;28;20418;-85
2020/12/31 10:19:36;;;;;;;0.20;0.20;;;4.60;91.10;;;;;;4146173;28;20053;-84
2020/12/31 10:21:38;;;;;;;0.20;0.20;;;4.70;90.90;;;;;;4138794;28;20431;-85
2020/12/31 10:23:39;;;;;;;1.45;0.30;;;4.70;90.60;;;;;;4162815;28;20103;-84
2020/12/31 10:25:40;;;;;;;0.47;0.47;;;4.70;90.80;;;;;;4159979;28;20057;-92
2020/12/31 10:27:41;;;;;;;0.80;0.25;;;4.70;91.00;;;;;;4160820;28;20061;-89
2020/12/31 10:29:43;;;;;;;0.28;0.28;;;4.80;90.90;;;;;;4173396;28;20508;-87
2020/12/31 10:31:51;;;;;;;0.10;0.10;;;4.80;91.10;;;;;;4176767;28;20537;-88
2020/12/31 10:33:52;;;;;;;0.10;0.10;;;4.80;91.10;;;;;;4185944;28;20047;-89
2020/12/31 10:35:54;;;;;;;1.00;0.30;;;4.80;91.20;;;;;;4159442;28;20529;-90
2020/12/31 10:37:55;;;;;;;0.10;0.10;;;4.80;91.40;;;;;;4178701;28;20049;-89
2020/12/31 10:39:56;;;;;;;0.22;0.20;;;4.90;91.40;;;;;;4177806;28;20043;-89
2020/12/31 10:41:58;;;;;;;0.30;0.30;;;4.90;91.70;;;;;;4180590;28;20087;-89
2020/12/31 10:44:00;;;;;;;0.20;0.20;;;5.00;91.60;;;;;;4176838;28;20543;-90
2020/12/31 10:46:01;;;;;;;0.40;0.38;;;5.00;91.90;;;;;;4186118;28;20135;-88